Observation data for Memphis on 01/18/2019      Previous  Date  Next       Current Mesonet Observations  Soil Data  Daily Summary Page  Observations in Plain Language
KMES 180600Z 07001KT 02/01 A3001 RMK A01 T00210010  RH  094%=      5-min Rain = 0
KMES 180605Z 00000KT 02/01 A30 RMK A01 T00210009  RH  093%=      5-min Rain = 0
KMES 180610Z 00000KT 02/01 A30 RMK A01 T00200008  RH  093%=      5-min Rain = 0
KMES 180615Z 00000KT 02/01 A2999 RMK A01 T00200008  RH  093%=      5-min Rain = 0
KMES 180620Z 00000KT 02/00 A2999 RMK A01 T00160004  RH  093%=      5-min Rain = 0
KMES 180625Z 35002KT 02/01 A2999 RMK A01 T00150005  RH  094%=      5-min Rain = 0
KMES 180630Z 00001KT 02/01 A2999 RMK A01 T00200011  RH  095%=      5-min Rain = 0
KMES 180635Z 04000KT 02/01 A2999 RMK A01 T00230013  RH  095%=      5-min Rain = 0
KMES 180640Z 00000KT 02/01 A2999 RMK A01 T00230013  RH  094%=      5-min Rain = 0
KMES 180645Z 00000KT 02/01 A2998 RMK A01 T00210011  RH  094%=      5-min Rain = 0
KMES 180650Z 00000KT 02/01 A2998 RMK A01 T00170006  RH  094%=      5-min Rain = 0
KMES 180655Z 00000KT 02/01 A2998 RMK A01 T00180009  RH  095%=      5-min Rain = 0
KMES 180700Z 00000KT 02/01 A2998 RMK A01 T00200010  RH  095%=      5-min Rain = 0
KMES 180705Z 00000KT 02/01 A2998 RMK A01 T00180008  RH  094%=      5-min Rain = 0
KMES 180710Z 00000KT 02/01 A2998 RMK A01 T00160007  RH  095%=      5-min Rain = 0
KMES 180715Z 15000KT 02/01 A2997 RMK A01 T00150005  RH  095%=      5-min Rain = 0
KMES 180720Z 14003KT 01/00 A2997 RMK A01 T00130004  RH  095%=      5-min Rain = 0
KMES 180725Z 13003KT 01/00 A2996 RMK A01 T00110002  RH  095%=      5-min Rain = 0
KMES 180730Z 13002KT 01/M00 A2996 RMK A01 T00071002  RH  094%=      5-min Rain = 0
KMES 180735Z 15000KT 00/M01 A2996 RMK A01 T00021007  RH  094%=      5-min Rain = 0
KMES 180740Z 16001KT 00/M01 A2995 RMK A01 T00021006  RH  095%=      5-min Rain = 0
KMES 180745Z 18002KT 01/M00 A2995 RMK A01 T00061001  RH  096%=      5-min Rain = 0
KMES 180750Z 20001KT 01/01 A2994 RMK A01 T00120006  RH  097%=      5-min Rain = 0
KMES 180755Z 20001KT 02/01 A2994 RMK A01 T00160009  RH  096%=      5-min Rain = 0
KMES 180800Z 17002KT 02/01 A2994 RMK A01 T00180011  RH  097%=      5-min Rain = 0
KMES 180805Z 19000KT 02/01 A2994 RMK A01 T00190011  RH  096%=      5-min Rain = 0
KMES 180810Z 00000KT 02/01 A2994 RMK A01 T00180010  RH  096%=      5-min Rain = 0
KMES 180815Z 00000KT 01/01 A2993 RMK A01 T00140007  RH  096%=      5-min Rain = 0
KMES 180820Z 16001KT 02/01 A2993 RMK A01 T00150008  RH  097%=      5-min Rain = 0
KMES 180825Z 12002KT 01/01 A2992 RMK A01 T00140008  RH  097%=      5-min Rain = 0
KMES 180830Z 12002KT 01/01 A2992 RMK A01 T00130007  RH  097%=      5-min Rain = 0
KMES 180835Z 12001KT 01/00 A2992 RMK A01 T00110003  RH  096%=      5-min Rain = 0
KMES 180840Z 33000KT 01/00 A2992 RMK A01 T00090003  RH  097%=      5-min Rain = 0
KMES 180845Z 01001KT 01/01 A2991 RMK A01 T00130007  RH  097%=      5-min Rain = 0
KMES 180850Z 01001KT 01/00 A2991 RMK A01 T00090003  RH  097%=      5-min Rain = 0
KMES 180855Z 02002KT 01/01 A2991 RMK A01 T00140010  RH  099%=      5-min Rain = 0
KMES 180900Z 04002KT 02/01 A2991 RMK A01 T00180013  RH  098%=      5-min Rain = 0
KMES 180905Z 08004KT 02/02 A2991 RMK A01 T00200015  RH  098%=      5-min Rain = 0
KMES 180910Z 10004KT 02/01 A2991 RMK A01 T00180013  RH  097%=      5-min Rain = 0
KMES 180915Z 10002KT 01/01 A2991 RMK A01 T00130007  RH  097%=      5-min Rain = 0
KMES 180920Z 11003KT 01/01 A2991 RMK A01 T00100005  RH  097%=      5-min Rain = 0
KMES 180925Z 12003KT 01/00 A299 RMK A01 T00080003  RH  098%=      5-min Rain = 0
KMES 180930Z 14004KT 01/01 A299 RMK A01 T00120008  RH  099%=      5-min Rain = 0
KMES 180935Z 14003KT 02/01 A2989 RMK A01 T00150011  RH  099%=      5-min Rain = 0
KMES 180940Z 14004KT 02/02 A2989 RMK A01 T00210017  RH  099%=      5-min Rain = 0
KMES 180945Z 14005KT 02/02 A2988 RMK A01 T00230018  RH  099%=      5-min Rain = 0
KMES 180950Z 14006KT 02/02 A2988 RMK A01 T00220018  RH  099%=      5-min Rain = 0
KMES 180955Z 14006KT 02/02 A2987 RMK A01 T00230019  RH  099%=      5-min Rain = 0
KMES 181000Z 14006KT 03/02 A2987 RMK A01 T00250021  RH  099%=      5-min Rain = 0
KMES 181005Z 15005KT 03/02 A2987 RMK A01 T00270023  RH  099%=      5-min Rain = 0
KMES 181010Z 15005KT 03/02 A2987 RMK A01 T00270023  RH  099%=      5-min Rain = 0
KMES 181015Z 14005KT 03/02 A2986 RMK A01 T00250021  RH  098%=      5-min Rain = 0
KMES 181020Z 32004G11KT 02/02 A2987 RMK A01 T00230018  RH  098%=      5-min Rain = 0
KMES 181025Z 33008G13KT 02/01 A2988 RMK A01 T00160012  RH  098%=      5-min Rain = 0
KMES 181030Z 36002KT 02/02 A2987 RMK A01 T00180015  RH  099%=      5-min Rain = 0
KMES 181035Z 34003KT 02/01 A2987 RMK A01 T00160012  RH  099%=      5-min Rain = 0
KMES 181040Z 35003KT 01/01 A2986 RMK A01 T00130009  RH  099%=      5-min Rain = 0
KMES 181045Z 02002KT 01/01 A2986 RMK A01 T00100007  RH  099%=      5-min Rain = 0
KMES 181050Z 00002KT 01/01 A2986 RMK A01 T00080005  RH  099%=      5-min Rain = 0
KMES 181055Z 04002KT 01/00 A2985 RMK A01 T00060003  RH  099%=      5-min Rain = 0
KMES 181100Z 09001KT 01/00 A2985 RMK A01 T00060004  RH  099%=      5-min Rain = 0
KMES 181105Z 07001KT 01/00 A2984 RMK A01 T00060004  RH  099%=      5-min Rain = 0
KMES 181110Z 08000KT 01/00 A2984 RMK A01 T00050002  RH  099%=      5-min Rain = 0
KMES 181115Z 00000KT 00/M00 A2984 RMK A01 T00011002  RH  099%=      5-min Rain = 0
KMES 181120Z 00000KT M00/M01 A2983 RMK A01 T10021005  RH  099%=      5-min Rain = 0
KMES 181125Z 00000KT M01/M01 A2982 RMK A01 T10051007  RH  099%=      5-min Rain = 0
KMES 181130Z 03000KT M01/M01 A2982 RMK A01 T10051008  RH  099%=      5-min Rain = 0
KMES 181135Z 03001KT M01/M01 A2981 RMK A01 T10071010  RH  099%=      5-min Rain = 0
KMES 181140Z 05001KT M01/M01 A2981 RMK A01 T10091011  RH  099%=      5-min Rain = 0
KMES 181145Z 04002KT M01/M01 A298 RMK A01 T10071009  RH  100%=      5-min Rain = 0
KMES 181150Z 05002KT M01/M01 A298 RMK A01 T10051006  RH  100%=      5-min Rain = 0
KMES 181155Z 06001KT M00/M00 A2979 RMK A01 T10021004  RH  100%=      5-min Rain = 0
KMES 181200Z 00000KT 00/M00 A2979 RMK A01 T00011001  RH  100%=      5-min Rain = 0
KMES 181205Z 00000KT 00/M00 A2979 RMK A01 T00011001  RH  100%=      5-min Rain = 0
KMES 181210Z 24000KT 00/00 A298 RMK A01 T00020000  RH  100%=      5-min Rain = 0
KMES 181215Z 08000KT 00/00 A2979 RMK A01 T000200-0  RH  100%=      5-min Rain = 0
KMES 181220Z 10002KT 00/M00 A2978 RMK A01 T00011001  RH  100%=      5-min Rain = 0
KMES 181225Z 12002KT 00/M00 A2978 RMK A01 T00011001  RH  100%=      5-min Rain = 0
KMES 181230Z 12002KT 01/00 A2978 RMK A01 T00050003  RH  100%=      5-min Rain = 0
KMES 181235Z 13003KT 01/01 A2978 RMK A01 T00100008  RH  100%=      5-min Rain = 0
KMES 181240Z 14004KT 01/01 A2977 RMK A01 T00130011  RH  100%=      5-min Rain = 0
KMES 181245Z 14003KT 01/01 A2977 RMK A01 T00120010  RH  100%=      5-min Rain = 0
KMES 181250Z 14003KT 01/01 A2977 RMK A01 T00090007  RH  100%=      5-min Rain = 0
KMES 181255Z 13002KT 01/01 A2977 RMK A01 T00090007  RH  100%=      5-min Rain = 0
KMES 181300Z 12002KT 01/01 A2977 RMK A01 T00090007  RH  100%=      5-min Rain = 0
KMES 181305Z 08001KT 01/01 A2977 RMK A01 T00080006  RH  100%=      5-min Rain = 0
KMES 181310Z 36001KT 01/01 A2977 RMK A01 T00080006  RH  100%=      5-min Rain = 0
KMES 181315Z 34001KT 01/01 A2978 RMK A01 T00080007  RH  100%=      5-min Rain = 0
KMES 181320Z 31001KT 01/01 A2978 RMK A01 T00090007  RH  100%=      5-min Rain = 0
KMES 181325Z 28000KT 01/01 A2978 RMK A01 T00100009  RH  100%=      5-min Rain = 0
KMES 181330Z 00000KT 01/01 A2978 RMK A01 T00110009  RH  100%=      5-min Rain = 0
KMES 181335Z 00000KT 01/01 A2978 RMK A01 T00100008  RH  100%=      5-min Rain = 0
KMES 181340Z 34001KT 01/01 A2978 RMK A01 T00080006  RH  100%=      5-min Rain = 0
KMES 181345Z 34000KT 01/00 A2977 RMK A01 T00060004  RH  100%=      5-min Rain = 0
KMES 181350Z 07000KT 01/00 A2977 RMK A01 T00050004  RH  100%=      5-min Rain = 0
KMES 181355Z 34000KT 01/00 A2977 RMK A01 T00060004  RH  100%=      5-min Rain = 0
KMES 181400Z 32000KT 01/01 A2977 RMK A01 T00070005  RH  100%=      5-min Rain = 0
KMES 181405Z 00000KT 01/01 A2977 RMK A01 T00100008  RH  100%=      5-min Rain = 0
KMES 181410Z 32000KT 01/01 A2977 RMK A01 T00110009  RH  100%=      5-min Rain = 0
KMES 181415Z 34001KT 01/01 A2976 RMK A01 T00120010  RH  100%=      5-min Rain = 0
KMES 181420Z 34002KT 01/01 A2976 RMK A01 T00130011  RH  100%=      5-min Rain = 0
KMES 181425Z 01001KT 01/01 A2976 RMK A01 T00140012  RH  100%=      5-min Rain = 0
KMES 181430Z 35000KT 02/01 A2976 RMK A01 T00150013  RH  100%=      5-min Rain = 0
KMES 181435Z 34000KT 02/01 A2976 RMK A01 T00150013  RH  100%=      5-min Rain = 0
KMES 181440Z 00000KT 02/02 A2976 RMK A01 T00180016  RH  100%=      5-min Rain = 0
KMES 181445Z 00000KT 02/02 A2975 RMK A01 T00190017  RH  100%=      5-min Rain = 0
KMES 181450Z 11001KT 02/02 A2975 RMK A01 T00190017  RH  100%=      5-min Rain = 0
KMES 181455Z 04001KT 02/02 A2975 RMK A01 T00200018  RH  100%=      5-min Rain = 0
KMES 181500Z 00000KT 02/02 A2975 RMK A01 T00230020  RH  100%=      5-min Rain = 0
KMES 181505Z 00000KT 02/02 A2975 RMK A01 T00240022  RH  100%=      5-min Rain = 0
KMES 181510Z 13001KT 03/02 A2975 RMK A01 T00250023  RH  100%=      5-min Rain = 0
KMES 181515Z 15001KT 03/02 A2975 RMK A01 T00260024  RH  100%=      5-min Rain = 0
KMES 181520Z 16000KT 03/03 A2975 RMK A01 T00270025  RH  100%=      5-min Rain = 0
KMES 181525Z 27000KT 03/03 A2975 RMK A01 T00280025  RH  100%=      5-min Rain = 0
KMES 181530Z 19000KT 03/03 A2974 RMK A01 T00280026  RH  100%=      5-min Rain = 0
KMES 181535Z 21000KT 03/03 A2974 RMK A01 T00290027  RH  100%=      5-min Rain = 0
KMES 181540Z 20001KT 03/03 A2974 RMK A01 T00310029  RH  100%=      5-min Rain = 0
KMES 181545Z 23000KT 03/03 A2974 RMK A01 T00330030  RH  100%=      5-min Rain = 0
KMES 181550Z 23000KT 04/03 A2974 RMK A01 T00350032  RH  100%=      5-min Rain = 0
KMES 181555Z 21000KT 04/04 A2973 RMK A01 T00370035  RH  100%=      5-min Rain = 0
KMES 181600Z 15001KT 04/04 A2973 RMK A01 T00390036  RH  100%=      5-min Rain = 0
KMES 181605Z 19002KT 04/04 A2973 RMK A01 T00420039  RH  100%=      5-min Rain = 0
KMES 181610Z 18002KT 05/04 A2973 RMK A01 T00450041  RH  099%=      5-min Rain = 0
KMES 181615Z 17003KT 05/04 A2972 RMK A01 T00470043  RH  099%=      5-min Rain = 0
KMES 181620Z 17003KT 05/05 A2972 RMK A01 T00510046  RH  099%=      5-min Rain = 0
KMES 181625Z 18000KT 05/05 A2972 RMK A01 T00540050  RH  099%=      5-min Rain = 0
KMES 181630Z 18001KT 06/05 A2972 RMK A01 T00570052  RH  098%=      5-min Rain = 0
KMES 181635Z 15002KT 06/06 A2971 RMK A01 T00610055  RH  098%=      5-min Rain = 0
KMES 181640Z 13004KT 07/06 A2971 RMK A01 T00650058  RH  097%=      5-min Rain = 0
KMES 181645Z 12003KT 07/06 A297 RMK A01 T00680057  RH  095%=      5-min Rain = 0
KMES 181650Z 10001KT 07/06 A297 RMK A01 T00720059  RH  094%=      5-min Rain = 0
KMES 181655Z 13003KT 08/06 A297 RMK A01 T00790063  RH  092%=      5-min Rain = 0
KMES 181700Z 14004KT 09/06 A2969 RMK A01 T00850060  RH  087%=      5-min Rain = 0
KMES 181705Z 16006KT 09/06 A2969 RMK A01 T00890056  RH  082%=      5-min Rain = 0
KMES 181710Z 16007KT 09/06 A2968 RMK A01 T00930055  RH  079%=      5-min Rain = 0
KMES 181715Z 16006KT 10/06 A2967 RMK A01 T00990056  RH  076%=      5-min Rain = 0
KMES 181720Z 18007KT 11/06 A2967 RMK A01 T01080056  RH  072%=      5-min Rain = 0
KMES 181725Z 19011G16KT 13/05 A2967 RMK A01 T01270045  RH  059%=      5-min Rain = 0
KMES 181730Z 20011KT 14/04 A2966 RMK A01 T01430040  RH  051%=      5-min Rain = 0
KMES 181735Z 21010KT 15/04 A2966 RMK A01 T01520040  RH  048%=      5-min Rain = 0
KMES 181740Z 21010G15KT 16/04 A2966 RMK A01 T01570039  RH  046%=      5-min Rain = 0
KMES 181745Z 21012KT 16/04 A2966 RMK A01 T01600038  RH  045%=      5-min Rain = 0
KMES 181750Z 21011G16KT 17/04 A2965 RMK A01 T01660040  RH  044%=      5-min Rain = 0
KMES 181755Z 21010KT 17/04 A2964 RMK A01 T01720041  RH  042%=      5-min Rain = 0
KMES 181800Z 22010G17KT 18/04 A2963 RMK A01 T01810042  RH  040%=      5-min Rain = 0
KMES 181805Z 25015G28KT 20/04 A2963 RMK A01 T01990035  RH  035%=      5-min Rain = 0
KMES 181810Z 25017G29KT 21/03 A2962 RMK A01 T02070029  RH  031%=      5-min Rain = 0
KMES 181815Z 24016G28KT 21/03 A2962 RMK A01 T02100029  RH  031%=      5-min Rain = 0
KMES 181820Z 25020G35KT 21/03 A2961 RMK A01 T02120026  RH  030%=      5-min Rain = 0
KMES 181825Z 26021G31KT 21/02 A2961 RMK A01 T02110021  RH  029%=      5-min Rain = 0
KMES 181830Z 24024G35KT 21/02 A296 RMK A01 T02070021  RH  029%=      5-min Rain = 0
KMES 181835Z 25022G30KT 21/02 A296 RMK A01 T02100021  RH  029%=      5-min Rain = 0
KMES 181840Z 25021G32KT 21/02 A2959 RMK A01 T02130021  RH  029%=      5-min Rain = 0
KMES 181845Z 26018G30KT 21/02 A2959 RMK A01 T02110020  RH  028%=      5-min Rain = 0
KMES 181850Z 26021G32KT 21/02 A2959 RMK A01 T02060017  RH  029%=      5-min Rain = 0
KMES 181855Z 26018G29KT 20/02 A2958 RMK A01 T02040017  RH  029%=      5-min Rain = 0
KMES 181900Z 26016G26KT 21/02 A2958 RMK A01 T02110020  RH  029%=      5-min Rain = 0
KMES 181905Z 25018G25KT 22/02 A2957 RMK A01 T02160019  RH  028%=      5-min Rain = 0
KMES 181910Z 25021G31KT 22/02 A2957 RMK A01 T02160018  RH  028%=      5-min Rain = 0
KMES 181915Z 25019G26KT 22/02 A2956 RMK A01 T02170021  RH  028%=      5-min Rain = 0
KMES 181920Z 24020G30KT 22/02 A2956 RMK A01 T02170019  RH  027%=      5-min Rain = 0
KMES 181925Z 24023G33KT 22/02 A2956 RMK A01 T02150017  RH  027%=      5-min Rain = 0
KMES 181930Z 25018G27KT 22/02 A2956 RMK A01 T02150015  RH  027%=      5-min Rain = 0
KMES 181935Z 24018G27KT 22/02 A2955 RMK A01 T02150015  RH  027%=      5-min Rain = 0
KMES 181940Z 24020G29KT 22/01 A2955 RMK A01 T02170013  RH  026%=      5-min Rain = 0
KMES 181945Z 24020G28KT 22/01 A2954 RMK A01 T02200012  RH  026%=      5-min Rain = 0
KMES 181950Z 25016G25KT 22/01 A2955 RMK A01 T02190009  RH  025%=      5-min Rain = 0
KMES 181955Z 25015G22KT 22/01 A2954 RMK A01 T02200007  RH  025%=      5-min Rain = 0
KMES 182000Z 25016G26KT 22/01 A2954 RMK A01 T02190007  RH  025%=      5-min Rain = 0
KMES 182005Z 26014G25KT 22/00 A2953 RMK A01 T02180002  RH  024%=      5-min Rain = 0
KMES 182010Z 27015G25KT 22/M00 A2953 RMK A01 T02221003  RH  023%=      5-min Rain = 0
KMES 182015Z 27018G26KT 22/M00 A2953 RMK A01 T02241003  RH  022%=      5-min Rain = 0
KMES 182020Z 26016G25KT 23/M00 A2953 RMK A01 T02251002  RH  022%=      5-min Rain = 0
KMES 182025Z 25018G27KT 23/M00 A2953 RMK A01 T02271002  RH  022%=      5-min Rain = 0
KMES 182030Z 25016G24KT 22/M00 A2953 RMK A01 T02241003  RH  022%=      5-min Rain = 0
KMES 182035Z 25013G21KT 22/M00 A2953 RMK A01 T02201003  RH  023%=      5-min Rain = 0
KMES 182040Z 26012G19KT 22/M01 A2953 RMK A01 T02211007  RH  022%=      5-min Rain = 0
KMES 182045Z 26015G26KT 22/M01 A2953 RMK A01 T02231007  RH  022%=      5-min Rain = 0
KMES 182050Z 26014G20KT 23/M01 A2953 RMK A01 T02261006  RH  022%=      5-min Rain = 0
KMES 182055Z 26014G22KT 23/M01 A2953 RMK A01 T02271006  RH  021%=      5-min Rain = 0
KMES 182100Z 26016G24KT 23/M01 A2953 RMK A01 T02261010  RH  021%=      5-min Rain = 0
KMES 182105Z 27017G27KT 22/M02 A2953 RMK A01 T02241018  RH  020%=      5-min Rain = 0
KMES 182110Z 28017G23KT 22/M03 A2953 RMK A01 T02231026  RH  019%=      5-min Rain = 0
KMES 182115Z 27015G23KT 22/M03 A2953 RMK A01 T02201029  RH  019%=      5-min Rain = 0
KMES 182120Z 27013G20KT 22/M03 A2953 RMK A01 T02181027  RH  019%=      5-min Rain = 0
KMES 182125Z 27012G25KT 22/M03 A2953 RMK A01 T02191025  RH  020%=      5-min Rain = 0
KMES 182130Z 27014G23KT 22/M03 A2953 RMK A01 T02171029  RH  019%=      5-min Rain = 0
KMES 182135Z 27012G21KT 22/M03 A2954 RMK A01 T02171028  RH  019%=      5-min Rain = 0
KMES 182140Z 26013G20KT 22/M04 A2954 RMK A01 T02181039  RH  018%=      5-min Rain = 0
KMES 182145Z 26015G21KT 22/M05 A2954 RMK A01 T02171045  RH  017%=      5-min Rain = 0
KMES 182150Z 28015G24KT 22/M05 A2954 RMK A01 T02191047  RH  017%=      5-min Rain = 0
KMES 182155Z 28015G24KT 22/M06 A2954 RMK A01 T02161055  RH  016%=      5-min Rain = 0
KMES 182200Z 27012G18KT 21/M06 A2954 RMK A01 T02111055  RH  016%=      5-min Rain = 0
KMES 182205Z 27011G18KT 21/M05 A2955 RMK A01 T02091052  RH  017%=      5-min Rain = 0
KMES 182210Z 28009KT 21/M05 A2955 RMK A01 T02081049  RH  017%=      5-min Rain = 0
KMES 182215Z 27010KT 21/M05 A2955 RMK A01 T02091049  RH  017%=      5-min Rain = 0
KMES 182220Z 27009KT 21/M05 A2955 RMK A01 T02101048  RH  017%=      5-min Rain = 0
KMES 182225Z 27010KT 21/M05 A2955 RMK A01 T02111050  RH  017%=      5-min Rain = 0
KMES 182230Z 27010G17KT 21/M05 A2955 RMK A01 T02101051  RH  017%=      5-min Rain = 0
KMES 182235Z 26010G15KT 21/M05 A2955 RMK A01 T02091045  RH  018%=      5-min Rain = 0
KMES 182240Z 26013G20KT 21/M03 A2955 RMK A01 T02091028  RH  020%=      5-min Rain = 0
KMES 182245Z 27012G20KT 21/M03 A2955 RMK A01 T02091026  RH  021%=      5-min Rain = 0
KMES 182250Z 26013G21KT 21/M03 A2955 RMK A01 T02081027  RH  020%=      5-min Rain = 0
KMES 182255Z 26013G19KT 21/M03 A2955 RMK A01 T02071029  RH  020%=      5-min Rain = 0
KMES 182300Z 27013G20KT 21/M03 A2956 RMK A01 T02061032  RH  020%=      5-min Rain = 0
KMES 182305Z 27012G17KT 20/M04 A2956 RMK A01 T02041035  RH  020%=      5-min Rain = 0
KMES 182310Z 27011G20KT 20/M04 A2956 RMK A01 T02021036  RH  020%=      5-min Rain = 0
KMES 182315Z 27012G18KT 20/M04 A2956 RMK A01 T02001041  RH  019%=      5-min Rain = 0
KMES 182320Z 27009G14KT 20/M04 A2956 RMK A01 T01971042  RH  020%=      5-min Rain = 0
KMES 182325Z 28010G15KT 19/M04 A2956 RMK A01 T01941042  RH  020%=      5-min Rain = 0
KMES 182330Z 34024G31KT 17/M01 A2959 RMK A01 T01741006  RH  031%=      5-min Rain = 0
KMES 182335Z 35025G32KT 14/01 A296 RMK A01 T01400010  RH  042%=      5-min Rain = 0
KMES 182340Z 35026G34KT 13/01 A2961 RMK A01 T01280013  RH  046%=      5-min Rain = 0
KMES 182345Z 36021G27KT 12/01 A2961 RMK A01 T01210014  RH  049%=      5-min Rain = 0
KMES 182350Z 35020G30KT 11/01 A2962 RMK A01 T01130014  RH  051%=      5-min Rain = 0
KMES 182355Z 34026G34KT 11/01 A2963 RMK A01 T01060012  RH  053%=      5-min Rain = 0
KMES 190000Z 34025G36KT 10/01 A2964 RMK A01 T01010012  RH  055%=      5-min Rain = 0
KMES 190005Z 34026G33KT 09/01 A2965 RMK A01 T00940010  RH  057%=      5-min Rain = 0
KMES 190010Z 34022G29KT 09/01 A2965 RMK A01 T00870009  RH  059%=      5-min Rain = 0
KMES 190015Z 34023G30KT 08/01 A2966 RMK A01 T00810008  RH  061%=      5-min Rain = 0
KMES 190020Z 35028G36KT 08/01 A2966 RMK A01 T00760007  RH  062%=      5-min Rain = 0
KMES 190025Z 35030G38KT 07/01 A2965 RMK A01 T00710007  RH  065%=      5-min Rain = 0
KMES 190030Z 35030G37KT 07/01 A2965 RMK A01 T00660007  RH  067%=      5-min Rain = 0
KMES 190035Z 35031G40KT 06/01 A2966 RMK A01 T00630007  RH  068%=      5-min Rain = 0
KMES 190040Z 35029G37KT 06/01 A2966 RMK A01 T00610007  RH  069%=      5-min Rain = 0
KMES 190045Z 36026G33KT 06/01 A2966 RMK A01 T00600007  RH  070%=      5-min Rain = 0
KMES 190050Z 35032G41KT 06/01 A2966 RMK A01 T00590009  RH  071%=      5-min Rain = 0
KMES 190055Z 35030G40KT 06/01 A2967 RMK A01 T00580009  RH  072%=      5-min Rain = 0
KMES 190100Z 35031G40KT 06/01 A2968 RMK A01 T00570010  RH  073%=      5-min Rain = 0
KMES 190105Z 35034G42KT 06/01 A2968 RMK A01 T00560011  RH  074%=      5-min Rain = 0
KMES 190110Z 35033G41KT 06/01 A2969 RMK A01 T00550013  RH  075%=      5-min Rain = 0
KMES 190115Z 35029G36KT 06/01 A2969 RMK A01 T00560013  RH  075%=      5-min Rain = 0
KMES 190120Z 35030G42KT 06/01 A297 RMK A01 T00560013  RH  075%=      5-min Rain = 0
KMES 190125Z 35033G43KT 06/01 A297 RMK A01 T00550013  RH  075%=      5-min Rain = 0
KMES 190130Z 35032G42KT 06/01 A2972 RMK A01 T00550014  RH  076%=      5-min Rain = 0
KMES 190135Z 35027G37KT 06/01 A2972 RMK A01 T00550014  RH  076%=      5-min Rain = 0
KMES 190140Z 35030G37KT 06/01 A2973 RMK A01 T00550014  RH  076%=      5-min Rain = 0
KMES 190145Z 35030G46KT 06/01 A2973 RMK A01 T00550014  RH  076%=      5-min Rain = 0
KMES 190150Z 35029G39KT 05/01 A2974 RMK A01 T00520014  RH  077%=      5-min Rain = 0
KMES 190155Z 35031G42KT 05/01 A2975 RMK A01 T00520013  RH  077%=      5-min Rain = 0
KMES 190200Z 34027G39KT 05/01 A2976 RMK A01 T00520013  RH  077%=      5-min Rain = 0
KMES 190205Z 34032G41KT 05/01 A2976 RMK A01 T00490012  RH  078%=      5-min Rain = 0
KMES 190210Z 35033G42KT 05/01 A2976 RMK A01 T00480011  RH  078%=      5-min Rain = 0
KMES 190215Z 35029G39KT 05/01 A2977 RMK A01 T00480010  RH  077%=      5-min Rain = 0
KMES 190220Z 35031G43KT 05/01 A2977 RMK A01 T00490009  RH  077%=      5-min Rain = 0
KMES 190225Z 35036G45KT 05/01 A2977 RMK A01 T00480007  RH  076%=      5-min Rain = 0
KMES 190230Z 35032G40KT 05/01 A2977 RMK A01 T00470006  RH  075%=      5-min Rain = 0
KMES 190235Z 35028G39KT 05/01 A2978 RMK A01 T00470006  RH  076%=      5-min Rain = 0
KMES 190240Z 35033G43KT 05/00 A2978 RMK A01 T00460004  RH  075%=      5-min Rain = 0
KMES 190245Z 35033G43KT 05/00 A2978 RMK A01 T00450003  RH  075%=      5-min Rain = 0
KMES 190250Z 35033G42KT 04/00 A2979 RMK A01 T00440000  RH  074%=      5-min Rain = 0
KMES 190255Z 35032G44KT 04/M00 A2979 RMK A01 T00431001  RH  074%=      5-min Rain = 0
KMES 190300Z 35029G46KT 04/M00 A2979 RMK A01 T00421001  RH  074%=      5-min Rain = 0
KMES 190305Z 35034G43KT 04/M00 A2979 RMK A01 T00421003  RH  073%=      5-min Rain = 0
KMES 190310Z 35035G44KT 04/M00 A298 RMK A01 T00411004  RH  073%=      5-min Rain = 0
KMES 190315Z 35036G47KT 04/M01 A298 RMK A01 T00401006  RH  073%=      5-min Rain = 0
KMES 190320Z 35037G46KT 04/M01 A298 RMK A01 T00391007  RH  073%=      5-min Rain = 0
KMES 190325Z 35033G42KT 04/M01 A2981 RMK A01 T00391008  RH  072%=      5-min Rain = 0
KMES 190330Z 35030G39KT 04/M01 A2981 RMK A01 T00391008  RH  072%=      5-min Rain = 0
KMES 190335Z 35035G48KT 04/M01 A2982 RMK A01 T00381010  RH  072%=      5-min Rain = 0
KMES 190340Z 35035G43KT 04/M01 A2982 RMK A01 T00381011  RH  071%=      5-min Rain = 0
KMES 190345Z 35035G47KT 04/M01 A2983 RMK A01 T00361013  RH  071%=      5-min Rain = 0
KMES 190350Z 35038G50KT 03/M02 A2983 RMK A01 T00341015  RH  071%=      5-min Rain = 0
KMES 190355Z 35034G45KT 03/M02 A2983 RMK A01 T00331016  RH  071%=      5-min Rain = 0
KMES 190400Z 35032G38KT 03/M01 A2984 RMK A01 T00311013  RH  074%=      5-min Rain = 0
KMES 190405Z 35032G43KT 03/M01 A2984 RMK A01 T00281011  RH  076%=      5-min Rain = 0
KMES 190410Z 35030G38KT 03/M01 A2985 RMK A01 T00251009  RH  079%=      5-min Rain = 0
KMES 190415Z 35029G38KT 02/M01 A2986 RMK A01 T00211007  RH  082%=      5-min Rain = 0
KMES 190420Z 35031G42KT 02/M01 A2986 RMK A01 T00201008  RH  082%=      5-min Rain = 0
KMES 190425Z 35032G46KT 02/M01 A2986 RMK A01 T00221011  RH  080%=      5-min Rain = 0
KMES 190430Z 35032G42KT 02/M01 A2987 RMK A01 T00231011  RH  079%=      5-min Rain = 0
KMES 190435Z 34030G38KT 02/M01 A2988 RMK A01 T00241010  RH  079%=      5-min Rain = 0
KMES 190440Z 34033G42KT 02/M01 A2988 RMK A01 T00241012  RH  078%=      5-min Rain = 0
KMES 190445Z 35032G44KT 02/M02 A2989 RMK A01 T00241015  RH  076%=      5-min Rain = 0
KMES 190450Z 35035G48KT 02/M02 A2988 RMK A01 T00241017  RH  074%=      5-min Rain = 0
KMES 190455Z 35033G44KT 02/M02 A2989 RMK A01 T00241017  RH  075%=      5-min Rain = 0
KMES 190500Z 35033G42KT 02/M02 A299 RMK A01 T00241017  RH  075%=      5-min Rain = 0
KMES 190505Z 35035G45KT 02/M02 A2991 RMK A01 T00241019  RH  074%=      5-min Rain = 0
KMES 190510Z 35031G44KT 02/M02 A2992 RMK A01 T00231020  RH  074%=      5-min Rain = 0
KMES 190515Z 35032G45KT 02/M02 A2992 RMK A01 T00231021  RH  073%=      5-min Rain = 0
KMES 190520Z 35035G45KT 02/M02 A2992 RMK A01 T00231024  RH  072%=      5-min Rain = 0
KMES 190525Z 35031G40KT 02/M02 A2993 RMK A01 T00231024  RH  072%=      5-min Rain = 0
KMES 190530Z 35032G43KT 02/M02 A2993 RMK A01 T00221022  RH  073%=      5-min Rain = 0
KMES 190535Z 35033G42KT 02/M02 A2994 RMK A01 T00211022  RH  073%=      5-min Rain = 0
KMES 190540Z 35032G40KT 02/M02 A2994 RMK A01 T00211023  RH  073%=      5-min Rain = 0
KMES 190545Z 35031G41KT 02/M02 A2994 RMK A01 T00201024  RH  073%=      5-min Rain = 0
KMES 190550Z 35029G39KT 02/M02 A2994 RMK A01 T00201024  RH  073%=      5-min Rain = 0
KMES 190555Z 35028G35KT 02/M02 A2994 RMK A01 T00211023  RH  073%=      5-min Rain = 0

Page generated in 0.0171 seconds.